Time;durP1;ratioP1;P1;durP2;ratioP2;P2;SDS_P1;SDS_P2;PMS_P1;PMS_P2;Temp;Humidity;BMP_temperature;BMP_pressure;BME280_temperature;BME280_humidity;BME280_pressure;Samples;Min_cycle;Max_cycle;Signal;HPM_P1;HPM_P2
2022/07/25 00:00:38;;;;;;;23.67;21.30;;;28.70;99.90;;;;;;5033865;28;20037;-49
2022/07/25 00:03:04;;;;;;;20.20;18.10;;;28.70;99.90;;;;;;5033591;28;20029;-49
2022/07/25 00:05:29;;;;;;;20.92;17.17;;;28.80;99.90;;;;;;5033483;28;20049;-49
2022/07/25 00:07:55;;;;;;;20.83;16.95;;;28.70;99.90;;;;;;5033530;28;20435;-49
2022/07/25 00:10:21;;;;;;;15.85;13.68;;;28.70;99.90;;;;;;5033251;28;20033;-48
2022/07/25 00:12:47;;;;;;;14.13;12.40;;;28.70;99.90;;;;;;5033200;28;20022;-49
2022/07/25 00:15:13;;;;;;;14.30;11.98;;;28.70;99.90;;;;;;5033086;28;20469;-49
2022/07/25 00:17:39;;;;;;;14.93;13.52;;;28.70;99.90;;;;;;5033222;28;20045;-49
2022/07/25 00:20:06;;;;;;;15.30;12.75;;;28.70;99.90;;;;;;5033359;28;20127;-49
2022/07/25 00:22:32;;;;;;;21.13;13.35;;;28.70;99.90;;;;;;5033197;28;20105;-50
2022/07/25 00:24:57;;;;;;;13.68;11.68;;;28.70;99.90;;;;;;5033150;28;20148;-49
2022/07/25 00:27:23;;;;;;;11.77;9.30;;;28.70;99.90;;;;;;5032968;28;20032;-50
2022/07/25 00:29:49;;;;;;;11.75;8.82;;;28.60;99.90;;;;;;5032921;28;20041;-50
2022/07/25 00:32:15;;;;;;;10.25;7.57;;;28.60;99.90;;;;;;5032667;28;20028;-50
2022/07/25 00:34:40;;;;;;;10.20;7.13;;;28.60;99.90;;;;;;5032796;28;20025;-50
2022/07/25 00:37:06;;;;;;;9.48;6.35;;;28.60;99.90;;;;;;5032932;28;20029;-51
2022/07/25 00:39:32;;;;;;;6.15;5.47;;;28.60;99.90;;;;;;5032542;28;20034;-50
2022/07/25 00:41:58;;;;;;;10.85;5.53;;;28.60;99.90;;;;;;5032699;28;20045;-50
2022/07/25 00:44:28;;;;;;;8.57;5.63;;;28.60;99.90;;;;;;5032463;28;20401;-49
2022/07/25 00:46:55;;;;;;;5.60;4.72;;;28.60;99.90;;;;;;5032582;28;20052;-48
2022/07/25 00:49:21;;;;;;;10.57;5.30;;;28.50;99.90;;;;;;5032402;28;20021;-48
2022/07/25 00:51:47;;;;;;;8.93;6.22;;;28.50;99.90;;;;;;5032472;28;20025;-49
2022/07/25 00:54:14;;;;;;;5.68;5.03;;;28.50;99.90;;;;;;5032574;28;20048;-49
2022/07/25 00:56:40;;;;;;;6.75;5.38;;;28.50;99.90;;;;;;5031590;28;20029;-49
2022/07/25 00:59:09;;;;;;;7.45;6.13;;;28.40;99.90;;;;;;5032702;28;20021;-49
2022/07/25 01:01:36;;;;;;;6.60;5.20;;;28.40;99.90;;;;;;5025533;22;20050;-54
2022/07/25 01:04:02;;;;;;;;;;;28.40;99.90;;;;;;5013159;28;20072;-56
2022/07/25 01:06:28;;;;;;;8.65;5.05;;;28.40;99.90;;;;;;5012482;28;19905;-56
2022/07/25 01:08:54;;;;;;;7.80;4.88;;;28.40;99.90;;;;;;5012336;28;20080;-57
2022/07/25 01:11:21;;;;;;;6.22;5.53;;;28.40;99.90;;;;;;5012478;28;20528;-57
2022/07/25 01:13:47;;;;;;;6.20;5.55;;;28.50;99.90;;;;;;5012335;28;20022;-56
2022/07/25 01:16:13;;;;;;;8.10;5.75;;;28.50;99.90;;;;;;5011039;28;20025;-56
2022/07/25 01:18:39;;;;;;;5.93;4.93;;;28.50;99.90;;;;;;5012497;28;20022;-56
2022/07/25 01:21:06;;;;;;;8.48;5.07;;;28.60;99.90;;;;;;5012218;28;20032;-56
2022/07/25 01:23:31;;;;;;;7.53;5.70;;;28.60;99.90;;;;;;5012148;28;20026;-57
2022/07/25 01:25:57;;;;;;;4.95;4.50;;;28.60;99.90;;;;;;5012023;28;20030;-56
2022/07/25 01:28:23;;;;;;;5.47;4.97;;;28.60;99.90;;;;;;5012073;28;20057;-57
2022/07/25 01:30:49;;;;;;;6.97;6.05;;;28.60;99.90;;;;;;5011997;28;20088;-56
2022/07/25 01:33:19;;;;;;;10.95;5.95;;;28.60;99.90;;;;;;5012019;28;20542;-56
2022/07/25 01:35:46;;;;;;;7.43;5.60;;;28.60;99.90;;;;;;5012006;28;20508;-57
2022/07/25 01:38:12;;;;;;;10.88;6.47;;;28.60;99.90;;;;;;5012222;28;20025;-56
2022/07/25 01:40:39;;;;;;;6.25;5.30;;;28.70;99.90;;;;;;5012239;28;20025;-56
2022/07/25 01:43:04;;;;;;;10.60;4.97;;;28.60;99.90;;;;;;5011982;28;20371;-56
2022/07/25 01:45:30;;;;;;;7.80;4.70;;;28.60;99.90;;;;;;5011968;28;20053;-56
2022/07/25 01:47:56;;;;;;;5.35;4.85;;;28.60;99.90;;;;;;5011975;28;20034;-57
2022/07/25 01:50:22;;;;;;;7.15;4.45;;;28.60;99.90;;;;;;5011730;28;20124;-56
2022/07/25 01:52:48;;;;;;;6.68;4.38;;;28.60;99.90;;;;;;5011653;28;20053;-55
2022/07/25 01:55:14;;;;;;;8.48;3.90;;;28.60;99.90;;;;;;5011970;28;20113;-57
2022/07/25 01:57:40;;;;;;;8.82;4.65;;;28.60;99.90;;;;;;5011813;28;20473;-56
2022/07/25 02:00:09;;;;;;;6.78;5.13;;;28.70;99.90;;;;;;5030563;22;20058;-49
2022/07/25 02:02:35;;;;;;;8.35;4.05;;;28.60;99.90;;;;;;5031535;28;20512;-48
2022/07/25 02:05:00;;;;;;;17.33;5.68;;;28.60;99.90;;;;;;5031269;28;20061;-49
2022/07/25 02:07:26;;;;;;;6.05;4.22;;;28.60;99.90;;;;;;5031072;28;20030;-49
2022/07/25 02:09:52;;;;;;;9.75;4.50;;;28.60;99.90;;;;;;5031196;28;20076;-49
2022/07/25 02:12:18;;;;;;;7.80;6.45;;;28.60;99.90;;;;;;5031579;28;20032;-49
2022/07/25 02:14:44;;;;;;;6.10;5.45;;;28.60;99.90;;;;;;5046847;28;20029;-49
2022/07/25 02:17:10;;;;;;;5.13;4.53;;;28.50;99.90;;;;;;5031206;28;20036;-49
2022/07/25 02:19:36;;;;;;;6.78;5.13;;;28.50;99.90;;;;;;5031242;28;20637;-48
2022/07/25 02:22:02;;;;;;;7.68;4.82;;;28.50;99.90;;;;;;5031242;28;20459;-49
2022/07/25 02:24:27;;;;;;;8.10;4.85;;;28.50;99.90;;;;;;5031232;28;20022;-49
2022/07/25 02:26:53;;;;;;;6.90;4.80;;;28.40;99.90;;;;;;5031030;28;20465;-48
2022/07/25 02:29:19;;;;;;;7.47;4.82;;;28.50;99.90;;;;;;5031042;28;20045;-49
2022/07/25 02:31:45;;;;;;;10.68;5.15;;;28.40;99.90;;;;;;5031193;28;20026;-49
2022/07/25 02:34:11;;;;;;;9.23;5.10;;;28.50;99.90;;;;;;5030938;28;20127;-49
2022/07/25 02:36:36;;;;;;;9.02;4.63;;;28.40;99.90;;;;;;5031203;28;20100;-49
2022/07/25 02:39:02;;;;;;;13.18;5.22;;;28.40;99.90;;;;;;5046382;28;20022;-49
2022/07/25 02:41:28;;;;;;;7.00;5.20;;;28.40;99.90;;;;;;5031136;28;20046;-49
2022/07/25 02:43:54;;;;;;;7.55;5.40;;;28.40;99.90;;;;;;5030910;28;20057;-49
2022/07/25 02:46:20;;;;;;;6.03;5.07;;;28.50;99.90;;;;;;5030783;28;20112;-49
2022/07/25 02:48:45;;;;;;;7.93;5.60;;;28.40;99.90;;;;;;5029765;28;20021;-49
2022/07/25 02:51:12;;;;;;;7.63;4.90;;;28.50;99.90;;;;;;5030696;28;20108;-49
2022/07/25 02:53:38;;;;;;;7.45;5.00;;;28.50;99.90;;;;;;5046056;28;20029;-48
2022/07/25 02:56:04;;;;;;;7.97;5.53;;;28.40;99.90;;;;;;5031052;28;20087;-49
2022/07/25 02:58:30;;;;;;;8.07;5.18;;;28.40;99.90;;;;;;5030869;28;20036;-49
2022/07/25 03:00:56;;;;;;;7.68;6.10;;;28.30;99.90;;;;;;5031108;28;20045;-49
2022/07/25 03:03:21;;;;;;;6.72;5.97;;;28.20;99.90;;;;;;5030712;28;20022;-49
2022/07/25 03:05:47;;;;;;;10.88;6.72;;;28.20;99.90;;;;;;5030976;28;20079;-49
2022/07/25 03:08:13;;;;;;;11.43;6.82;;;28.10;99.90;;;;;;5030806;28;20022;-48
2022/07/25 03:10:39;;;;;;;10.60;7.43;;;28.00;99.90;;;;;;5030558;28;20037;-50
2022/07/25 03:13:04;;;;;;;11.32;8.20;;;28.00;99.90;;;;;;5030662;28;20026;-49
2022/07/25 03:15:30;;;;;;;13.20;9.13;;;28.00;99.90;;;;;;5030650;28;20087;-49
2022/07/25 03:17:56;;;;;;;14.25;10.32;;;27.90;99.90;;;;;;5030685;28;20465;-49
2022/07/25 03:20:21;;;;;;;14.57;11.30;;;27.90;99.90;;;;;;5033832;28;20043;-49
2022/07/25 03:22:47;;;;;;;14.35;10.98;;;27.90;99.90;;;;;;5034413;28;20029;-49
2022/07/25 03:25:13;;;;;;;11.50;10.30;;;27.90;99.90;;;;;;5034225;28;20021;-49
2022/07/25 03:27:39;;;;;;;13.98;9.70;;;27.80;99.90;;;;;;5033977;28;20373;-49
2022/07/25 03:30:06;;;;;;;14.60;10.32;;;27.80;99.90;;;;;;5034148;28;20026;-49
2022/07/25 03:32:31;;;;;;;17.20;10.73;;;27.80;99.90;;;;;;5034074;28;20083;-49
2022/07/25 03:34:57;;;;;;;11.13;9.93;;;27.80;99.90;;;;;;5033950;28;20436;-49
2022/07/25 03:37:23;;;;;;;12.98;9.80;;;27.70;99.90;;;;;;5033843;28;20113;-49
2022/07/25 03:39:49;;;;;;;13.30;11.93;;;27.70;99.90;;;;;;5034195;28;20076;-49
2022/07/25 03:42:14;;;;;;;12.32;10.85;;;27.70;99.90;;;;;;5033937;28;20026;-49
2022/07/25 03:44:40;;;;;;;13.48;11.05;;;27.70;99.90;;;;;;5033895;28;20026;-49
2022/07/25 03:47:06;;;;;;;15.07;9.88;;;27.70;99.90;;;;;;5033801;28;20029;-55
2022/07/25 03:49:32;;;;;;;13.38;10.57;;;27.70;99.90;;;;;;5033717;28;20022;-49
2022/07/25 03:51:59;;;;;;;18.40;12.90;;;27.70;99.90;;;;;;5033679;28;20040;-49
2022/07/25 03:54:25;;;;;;;;;;;27.60;99.90;;;;;;5034150;28;20478;-49
2022/07/25 03:56:51;;;;;;;17.00;11.65;;;27.60;99.90;;;;;;5033786;28;19916;-49
2022/07/25 03:59:19;;;;;;;20.35;12.75;;;27.60;99.90;;;;;;5034261;28;20018;-49
2022/07/25 04:01:46;;;;;;;16.70;11.98;;;27.60;99.90;;;;;;5033761;28;20120;-49
2022/07/25 04:04:13;;;;;;;18.17;12.27;;;27.60;99.90;;;;;;5033541;28;20028;-49
2022/07/25 04:06:39;;;;;;;16.60;11.80;;;27.60;99.90;;;;;;5033540;28;20079;-49
2022/07/25 04:09:07;;;;;;;15.23;11.87;;;27.60;99.90;;;;;;5033482;28;20309;-49
2022/07/25 04:11:34;;;;;;;;;;;27.60;99.90;;;;;;5033717;28;20033;-49
2022/07/25 04:14:01;;;;;;;16.67;11.80;;;27.60;99.90;;;;;;5033296;28;20284;-49
2022/07/25 04:16:27;;;;;;;15.45;11.80;;;27.60;99.90;;;;;;5033346;28;20106;-49
2022/07/25 04:18:53;;;;;;;13.95;11.20;;;27.60;99.90;;;;;;5033414;28;20029;-49
2022/07/25 04:21:19;;;;;;;16.23;13.13;;;27.60;99.90;;;;;;5033247;28;20028;-49
2022/07/25 04:23:45;;;;;;;16.13;12.27;;;27.50;99.90;;;;;;5033071;28;20013;-49
2022/07/25 04:26:11;;;;;;;15.65;12.38;;;27.50;99.90;;;;;;5033064;28;20036;-49
2022/07/25 04:28:37;;;;;;;16.25;12.70;;;27.60;99.90;;;;;;5048386;28;20026;-49
2022/07/25 04:31:02;;;;;;;14.10;12.63;;;27.50;99.90;;;;;;5032573;28;20030;-48
2022/07/25 04:33:28;;;;;;;18.10;12.38;;;27.60;99.90;;;;;;5032990;28;20044;-48
2022/07/25 04:35:54;;;;;;;13.65;11.63;;;27.60;99.90;;;;;;5033104;28;20021;-48
2022/07/25 04:38:20;;;;;;;19.90;12.48;;;27.60;99.90;;;;;;5048360;28;20469;-48
2022/07/25 04:40:46;;;;;;;15.38;12.70;;;27.70;99.90;;;;;;5025432;28;20068;-48
2022/07/25 04:43:12;;;;;;;13.85;12.20;;;27.70;99.90;;;;;;5020176;28;20068;-48
2022/07/25 04:45:38;;;;;;;17.35;11.43;;;27.70;99.90;;;;;;5013342;28;20084;-48
2022/07/25 04:48:04;;;;;;;16.20;12.32;;;27.80;99.90;;;;;;5022473;28;20381;-48
2022/07/25 04:50:30;;;;;;;15.05;13.35;;;27.80;99.90;;;;;;5031995;28;20469;-48
2022/07/25 04:52:56;;;;;;;15.82;13.13;;;27.80;99.90;;;;;;5029362;28;20040;-48
2022/07/25 04:55:22;;;;;;;13.75;11.52;;;27.90;99.90;;;;;;5032381;28;20030;-49
2022/07/25 04:57:48;;;;;;;19.33;11.18;;;27.90;99.90;;;;;;5032404;28;20120;-49
2022/07/25 05:00:14;;;;;;;14.25;11.38;;;27.90;99.90;;;;;;5030291;28;20132;-49
2022/07/25 05:02:40;;;;;;;16.02;11.38;;;28.00;99.90;;;;;;5031121;28;20022;-48
2022/07/25 05:05:07;;;;;;;17.10;10.68;;;28.00;99.90;;;;;;5032288;28;20037;-49
2022/07/25 05:07:36;;;;;;;15.82;11.95;;;28.00;99.90;;;;;;5032221;28;20033;-49
2022/07/25 05:10:03;;;;;;;15.20;10.35;;;28.00;99.90;;;;;;5032064;28;20072;-49
2022/07/25 05:12:29;;;;;;;17.83;11.63;;;28.00;99.90;;;;;;5032300;28;20040;-49
2022/07/25 05:14:55;;;;;;;24.67;10.98;;;28.00;99.90;;;;;;5032218;28;20486;-49
2022/07/25 05:17:21;;;;;;;15.38;8.90;;;28.10;99.90;;;;;;5032138;28;20156;-49
2022/07/25 05:19:47;;;;;;;15.07;9.20;;;28.10;99.90;;;;;;5031972;28;20553;-49
2022/07/25 05:22:13;;;;;;;19.00;11.68;;;28.00;99.90;;;;;;5031756;28;20104;-49
2022/07/25 05:24:38;;;;;;;24.13;11.38;;;28.10;99.90;;;;;;5032070;28;20025;-49
2022/07/25 05:27:04;;;;;;;18.40;14.77;;;28.10;99.90;;;;;;5030487;28;20384;-49
2022/07/25 05:29:31;;;;;;;22.52;17.42;;;28.10;99.90;;;;;;5031729;28;20041;-48
2022/07/25 05:31:57;;;;;;;26.83;19.05;;;28.10;99.90;;;;;;5031965;28;20433;-49
2022/07/25 05:34:23;;;;;;;25.58;17.10;;;28.10;99.90;;;;;;5031792;28;20389;-49
2022/07/25 05:36:48;;;;;;;21.20;17.15;;;28.00;99.90;;;;;;5031775;28;20025;-50
2022/07/25 05:39:14;;;;;;;22.00;18.60;;;27.90;99.90;;;;;;5031767;28;20101;-49
2022/07/25 05:41:40;;;;;;;23.75;17.67;;;27.80;99.90;;;;;;5031037;28;20022;-49
2022/07/25 05:44:06;;;;;;;19.42;17.42;;;27.70;99.90;;;;;;5031627;28;20112;-49
2022/07/25 05:46:33;;;;;;;23.65;18.00;;;27.70;99.90;;;;;;5031692;28;20473;-49
2022/07/25 05:49:00;;;;;;;19.70;17.73;;;27.70;99.90;;;;;;5031704;28;20405;-49
2022/07/25 05:51:26;;;;;;;20.45;18.35;;;27.70;99.90;;;;;;5031867;28;20056;-49
2022/07/25 05:53:52;;;;;;;22.75;18.27;;;27.60;99.90;;;;;;5031443;28;20025;-48
2022/07/25 05:56:18;;;;;;;23.30;18.15;;;27.60;99.90;;;;;;5031363;28;20021;-49
2022/07/25 05:58:44;;;;;;;19.58;17.58;;;27.60;99.90;;;;;;5031467;28;20076;-49
2022/07/25 06:01:14;;;;;;;22.90;18.02;;;27.50;99.90;;;;;;5031244;28;20057;-49
2022/07/25 06:03:41;;;;;;;20.88;17.05;;;27.50;99.90;;;;;;5031294;28;20029;-50
2022/07/25 06:06:07;;;;;;;20.93;18.77;;;27.50;99.90;;;;;;5031424;28;20057;-49
2022/07/25 06:08:34;;;;;;;19.48;17.75;;;27.50;99.90;;;;;;5031471;28;20030;-49
2022/07/25 06:11:02;;;;;;;27.57;19.50;;;27.50;99.90;;;;;;5031303;28;20152;-49
2022/07/25 06:13:28;;;;;;;21.45;17.00;;;27.50;99.90;;;;;;5031495;28;20029;-49
2022/07/25 06:15:54;;;;;;;20.60;17.50;;;27.50;99.90;;;;;;5031380;28;20378;-48
2022/07/25 06:18:20;;;;;;;18.33;16.48;;;27.50;99.90;;;;;;5031241;28;20053;-49
2022/07/25 06:20:47;;;;;;;19.58;17.55;;;27.60;99.90;;;;;;5031203;28;20048;-49
2022/07/25 06:23:13;;;;;;;22.45;16.38;;;27.60;99.90;;;;;;5031057;28;20077;-49
2022/07/25 06:25:39;;;;;;;22.30;15.82;;;27.60;99.90;;;;;;5031312;28;20505;-49
2022/07/25 06:28:05;;;;;;;26.65;17.23;;;27.60;99.90;;;;;;5030906;28;20100;-49
2022/07/25 06:30:31;;;;;;;21.10;18.77;;;27.60;99.90;;;;;;5031178;28;20041;-50
2022/07/25 06:32:57;;;;;;;24.67;20.63;;;27.60;99.90;;;;;;5030861;28;20030;-49
2022/07/25 06:35:23;;;;;;;18.60;16.65;;;27.60;99.90;;;;;;5030988;28;20030;-49
2022/07/25 06:37:48;;;;;;;17.00;15.25;;;27.70;99.90;;;;;;5031017;28;20093;-50
2022/07/25 06:40:14;;;;;;;22.27;18.70;;;27.60;99.90;;;;;;5030956;28;20029;-49
2022/07/25 06:42:42;;;;;;;16.67;14.90;;;27.70;99.90;;;;;;5030915;28;20037;-49
2022/07/25 06:45:10;;;;;;;17.67;15.80;;;27.70;99.90;;;;;;5030950;28;20022;-49
2022/07/25 06:47:38;;;;;;;17.75;15.98;;;27.70;99.90;;;;;;5030949;28;20025;-49
2022/07/25 06:50:06;;;;;;;17.33;15.60;;;27.70;99.90;;;;;;5030930;28;20458;-49
2022/07/25 06:52:31;;;;;;;17.55;15.60;;;27.70;99.90;;;;;;5031158;28;20112;-49
2022/07/25 06:54:57;;;;;;;22.10;15.98;;;27.70;99.90;;;;;;5032535;28;20163;-49
2022/07/25 06:57:23;;;;;;;19.85;15.25;;;27.80;99.90;;;;;;5034730;28;20199;-49
2022/07/25 06:59:49;;;;;;;26.25;14.38;;;27.80;99.90;;;;;;5034523;28;20045;-49
2022/07/25 07:02:15;;;;;;;15.60;14.20;;;27.80;99.90;;;;;;5033382;28;20018;-49
2022/07/25 07:04:41;;;;;;;18.65;15.45;;;27.90;99.90;;;;;;5034499;28;20041;-49
2022/07/25 07:07:06;;;;;;;18.70;13.82;;;27.90;99.90;;;;;;5034510;28;20029;-49
2022/07/25 07:09:32;;;;;;;18.35;16.38;;;27.90;99.90;;;;;;5034626;28;20159;-49
2022/07/25 07:11:58;;;;;;;17.50;15.68;;;27.90;99.90;;;;;;5033065;28;20025;-49
2022/07/25 07:14:24;;;;;;;18.40;16.50;;;28.00;99.90;;;;;;5034313;28;20450;-49
2022/07/25 07:16:50;;;;;;;22.45;16.35;;;28.00;99.90;;;;;;5034392;28;20033;-49
2022/07/25 07:19:16;;;;;;;18.08;16.13;;;28.10;99.90;;;;;;5034140;28;20028;-49
2022/07/25 07:21:42;;;;;;;19.08;16.52;;;28.10;99.90;;;;;;5032834;28;20096;-49
2022/07/25 07:24:08;;;;;;;22.65;14.55;;;28.10;99.90;;;;;;5034037;28;20021;-49
2022/07/25 07:26:34;;;;;;;18.27;13.48;;;28.10;99.90;;;;;;5034142;28;20103;-49
2022/07/25 07:29:02;;;;;;;12.30;11.00;;;28.10;99.90;;;;;;5033931;28;20022;-49
2022/07/25 07:31:28;;;;;;;10.82;9.50;;;28.10;99.90;;;;;;5034012;28;20029;-48
2022/07/25 07:33:54;;;;;;;11.10;9.80;;;28.20;99.90;;;;;;5033742;28;20432;-49
2022/07/25 07:36:20;;;;;;;14.48;11.02;;;28.20;99.90;;;;;;5033835;28;20038;-49
2022/07/25 07:38:47;;;;;;;14.80;11.63;;;28.20;99.90;;;;;;5033743;28;20112;-49
2022/07/25 07:41:13;;;;;;;21.67;19.40;;;28.30;99.90;;;;;;5033853;28;20181;-49
2022/07/25 07:43:40;;;;;;;24.37;17.97;;;28.30;99.90;;;;;;5033777;28;20029;-49
2022/07/25 07:46:06;;;;;;;25.53;17.83;;;28.30;99.90;;;;;;5033938;28;20033;-49
2022/07/25 07:48:32;;;;;;;18.30;16.35;;;28.40;99.90;;;;;;5033632;28;20171;-50
2022/07/25 07:51:00;;;;;;;19.53;17.23;;;28.40;99.90;;;;;;5033654;28;20087;-49
2022/07/25 07:56:11;;;;;;;20.15;17.95;;;28.40;99.90;;;;;;5034105;28;20035;-49
2022/07/25 07:58:36;;;;;;;19.95;17.90;;;28.50;99.90;;;;;;5033688;28;20026;-49
2022/07/25 08:01:03;;;;;;;19.30;17.30;;;28.50;99.90;;;;;;5033140;28;20056;-49
2022/07/25 08:03:28;;;;;;;20.65;18.35;;;28.50;99.90;;;;;;5033325;28;20026;-49
2022/07/25 08:05:54;;;;;;;20.08;18.08;;;28.50;99.90;;;;;;5032611;28;20029;-49
2022/07/25 08:08:20;;;;;;;21.00;18.92;;;28.50;99.90;;;;;;5033245;28;20147;-49
2022/07/25 08:10:47;;;;;;;20.20;17.67;;;28.50;99.90;;;;;;5033054;28;20052;-49
2022/07/25 08:13:19;;;;;;;19.33;17.38;;;28.50;99.90;;;;;;5033102;28;20025;-49
2022/07/25 08:15:52;;;;;;;19.42;16.13;;;28.50;99.90;;;;;;5033008;28;20120;-49
2022/07/25 08:18:18;;;;;;;18.65;16.33;;;28.50;99.90;;;;;;5033086;28;20469;-49
2022/07/25 08:20:45;;;;;;;18.30;16.75;;;28.50;99.90;;;;;;5031807;28;20034;-50
2022/07/25 08:23:11;;;;;;;29.65;20.90;;;28.60;99.90;;;;;;5032877;28;20283;-50
2022/07/25 08:25:38;;;;;;;23.13;17.05;;;28.60;99.90;;;;;;5033191;28;20318;-49
2022/07/25 08:28:05;;;;;;;17.25;15.35;;;28.60;99.90;;;;;;5032992;28;20088;-50
2022/07/25 08:30:32;;;;;;;17.05;15.25;;;28.60;99.90;;;;;;5032793;28;20045;-49
2022/07/25 08:33:00;;;;;;;17.42;15.18;;;28.60;99.90;;;;;;5033017;28;20029;-50
2022/07/25 08:35:27;;;;;;;17.27;15.73;;;28.70;99.90;;;;;;5032855;28;20500;-49
2022/07/25 08:37:54;;;;;;;22.20;16.45;;;28.70;99.90;;;;;;5032728;28;20033;-50
2022/07/25 08:40:22;;;;;;;17.95;16.25;;;28.70;99.90;;;;;;5032725;28;20501;-49
2022/07/25 08:42:48;;;;;;;19.98;18.05;;;28.70;99.90;;;;;;5032614;28;20026;-50
2022/07/25 08:45:18;;;;;;;17.90;15.95;;;28.70;99.90;;;;;;5032628;28;20063;-48
2022/07/25 08:47:45;;;;;;;22.42;17.50;;;28.60;99.90;;;;;;5032452;28;20061;-49
2022/07/25 08:50:14;;;;;;;19.50;17.60;;;28.60;99.90;;;;;;5032623;28;20542;-49
2022/07/25 08:52:46;;;;;;;19.08;17.05;;;28.60;99.90;;;;;;5032701;28;20040;-49
2022/07/25 08:55:18;;;;;;;18.05;15.52;;;28.60;99.90;;;;;;5032426;28;20042;-50
2022/07/25 08:57:49;;;;;;;16.45;14.85;;;28.60;99.90;;;;;;5032253;28;20017;-49
2022/07/25 09:00:17;;;;;;;16.33;14.70;;;28.50;99.90;;;;;;5032136;28;20049;-48
2022/07/25 09:02:49;;;;;;;20.83;16.92;;;28.50;99.90;;;;;;5032234;28;20480;-49
2022/07/25 09:05:17;;;;;;;19.45;17.42;;;28.60;99.90;;;;;;5032627;28;20036;-49
2022/07/25 09:07:43;;;;;;;20.27;18.10;;;28.60;99.90;;;;;;5032192;28;20017;-49
2022/07/25 09:10:26;;;;;;;19.70;17.63;;;28.60;99.90;;;;;;5032269;28;20044;-49
2022/07/25 09:13:02;;;;;;;20.40;18.35;;;28.60;99.90;;;;;;5031950;28;20072;-52
2022/07/25 09:15:31;;;;;;;20.88;18.65;;;28.60;99.90;;;;;;5031793;28;20144;-49
2022/07/25 09:18:08;;;;;;;19.92;17.85;;;28.60;99.90;;;;;;5031198;28;20026;-49
2022/07/25 09:20:36;;;;;;;19.85;17.90;;;28.60;99.90;;;;;;5031846;28;20036;-48
2022/07/25 09:23:02;;;;;;;21.67;18.27;;;28.70;99.90;;;;;;5031774;28;20029;-49
2022/07/25 09:25:28;;;;;;;18.38;16.50;;;28.70;99.90;;;;;;5031899;28;20391;-49
2022/07/25 09:27:55;;;;;;;18.17;16.02;;;28.70;99.90;;;;;;5031707;28;20037;-49
2022/07/25 09:30:21;;;;;;;18.73;17.07;;;28.70;99.90;;;;;;5031791;28;20049;-49
2022/07/25 09:32:58;;;;;;;18.80;16.92;;;28.70;99.90;;;;;;5031699;28;20055;-49
2022/07/25 09:35:37;;;;;;;16.40;14.60;;;28.70;99.90;;;;;;5031618;28;20030;-49
2022/07/25 09:38:11;;;;;;;20.00;18.00;;;28.60;99.90;;;;;;5031583;28;20109;-49
2022/07/25 09:40:37;;;;;;;18.55;16.65;;;28.60;99.90;;;;;;5031583;28;20021;-49
2022/07/25 09:43:03;;;;;;;18.85;16.85;;;28.60;99.90;;;;;;5031317;28;20017;-50
2022/07/25 09:45:29;;;;;;;20.02;18.15;;;28.60;99.90;;;;;;5031645;28;20079;-50
2022/07/25 09:47:56;;;;;;;21.85;19.33;;;28.40;99.90;;;;;;5031305;28;20489;-49
2022/07/25 09:50:23;;;;;;;19.73;17.73;;;28.40;99.90;;;;;;5031240;28;20036;-49
2022/07/25 09:52:52;;;;;;;;;;;28.40;99.90;;;;;;5031712;28;20022;-49
2022/07/25 09:55:19;;;;;;;17.55;15.75;;;28.40;99.90;;;;;;5031163;28;19992;-49
2022/07/25 09:57:46;;;;;;;24.52;21.13;;;28.40;99.90;;;;;;5031560;28;20048;-49
2022/07/25 10:00:13;;;;;;;21.27;19.38;;;28.40;99.90;;;;;;5031180;28;20045;-49
2022/07/25 10:02:54;;;;;;;20.30;17.42;;;28.40;99.90;;;;;;5031115;28;20477;-49
2022/07/25 10:05:23;;;;;;;18.48;16.65;;;28.40;99.90;;;;;;5031212;28;20480;-49
2022/07/25 10:07:52;;;;;;;18.52;16.35;;;28.40;99.90;;;;;;5030798;28;20021;-49
2022/07/25 10:10:29;;;;;;;21.05;19.05;;;28.40;99.90;;;;;;5031044;28;20029;-49
2022/07/25 10:13:00;;;;;;;23.98;21.48;;;28.40;99.90;;;;;;5029777;28;20025;-49
2022/07/25 10:15:37;;;;;;;19.15;17.33;;;28.40;99.90;;;;;;5031114;28;20073;-49
2022/07/25 10:18:07;;;;;;;18.08;15.40;;;28.40;99.90;;;;;;5031283;28;20431;-49
2022/07/25 10:20:33;;;;;;;16.08;14.68;;;28.40;99.90;;;;;;5031111;28;20018;-50
2022/07/25 10:22:59;;;;;;;14.98;13.48;;;28.50;99.90;;;;;;5031027;28;20026;-49
2022/07/25 10:25:25;;;;;;;17.63;14.07;;;28.60;99.90;;;;;;5029537;28;20022;-50
2022/07/25 10:27:59;;;;;;;13.77;12.57;;;28.60;99.90;;;;;;5031873;28;20356;-49
2022/07/25 10:30:37;;;;;;;15.50;13.95;;;28.60;99.90;;;;;;5033705;28;20041;-49
2022/07/25 10:33:14;;;;;;;13.77;12.25;;;28.70;99.90;;;;;;5034760;28;20032;-49
2022/07/25 10:35:40;;;;;;;;;;;28.80;99.90;;;;;;5035399;28;20033;-49
2022/07/25 10:38:07;;;;;;;16.23;13.75;;;28.90;99.90;;;;;;5034782;28;19905;-49
2022/07/25 10:40:34;;;;;;;16.90;15.20;;;28.90;99.90;;;;;;5035011;28;20037;-49
2022/07/25 10:43:20;;;;;;;16.90;15.13;;;29.10;99.90;;;;;;5034630;28;20014;-49
2022/07/25 10:45:58;;;;;;;22.20;15.90;;;29.10;99.90;;;;;;5034974;28;20026;-49
2022/07/25 10:48:29;;;;;;;16.25;14.68;;;29.00;99.90;;;;;;5034639;28;20042;-49
2022/07/25 10:51:11;;;;;;;20.20;18.10;;;29.00;99.90;;;;;;5034513;28;20041;-49
2022/07/25 10:53:47;;;;;;;18.33;16.50;;;29.00;99.90;;;;;;5034460;28;20373;-49
2022/07/25 10:56:22;;;;;;;16.33;14.73;;;29.00;99.90;;;;;;5034436;28;20033;-49
2022/07/25 10:58:58;;;;;;;16.40;14.80;;;29.10;99.90;;;;;;5034683;28;20026;-49
2022/07/25 11:01:28;;;;;;;15.48;13.85;;;29.00;99.90;;;;;;5034279;28;20207;-49
2022/07/25 11:04:02;;;;;;;18.40;16.27;;;29.10;99.90;;;;;;5034264;28;20029;-49
2022/07/25 11:06:31;;;;;;;33.28;15.98;;;29.00;99.90;;;;;;5034326;28;20529;-49
2022/07/25 11:08:59;;;;;;;14.07;12.75;;;29.00;99.90;;;;;;5034316;28;20101;-49
2022/07/25 11:11:35;;;;;;;13.00;11.60;;;29.00;99.90;;;;;;5034197;28;20065;-49
2022/07/25 11:14:02;;;;;;;15.50;10.73;;;29.10;99.90;;;;;;5034157;28;20029;-50
2022/07/25 11:16:28;;;;;;;14.52;13.15;;;29.10;99.90;;;;;;5034224;28;20036;-49
2022/07/25 11:18:54;;;;;;;14.05;12.48;;;29.20;99.90;;;;;;5033950;28;20033;-49
2022/07/25 11:21:20;;;;;;;13.13;11.50;;;29.30;99.90;;;;;;5034212;28;20466;-50
2022/07/25 11:23:52;;;;;;;12.13;11.13;;;29.30;99.90;;;;;;5034411;28;20041;-49
2022/07/25 11:26:18;;;;;;;14.77;13.18;;;29.30;99.90;;;;;;5034293;28;20022;-49
2022/07/25 11:28:47;;;;;;;11.90;10.82;;;29.30;99.90;;;;;;5033911;28;20022;-50
2022/07/25 11:31:14;;;;;;;11.68;10.48;;;29.40;99.90;;;;;;5032486;28;20390;-50
2022/07/25 11:33:42;;;;;;;13.23;10.70;;;29.40;99.90;;;;;;5033866;28;20026;-50
2022/07/25 11:36:09;;;;;;;12.82;11.68;;;29.40;99.90;;;;;;5033715;28;20033;-49
2022/07/25 11:38:36;;;;;;;13.98;12.63;;;29.40;99.90;;;;;;5033778;28;20025;-49
2022/07/25 11:41:03;;;;;;;11.23;10.13;;;29.50;99.90;;;;;;5031412;28;20127;-49
2022/07/25 11:43:29;;;;;;;10.90;9.83;;;29.50;99.90;;;;;;5032413;28;20029;-49
2022/07/25 11:45:56;;;;;;;11.45;10.25;;;29.60;99.90;;;;;;5033697;28;20108;-49
2022/07/25 11:48:32;;;;;;;13.48;11.88;;;29.60;99.90;;;;;;5033680;28;20511;-50
2022/07/25 11:51:14;;;;;;;11.48;10.38;;;29.70;99.90;;;;;;5032456;28;20037;-49
2022/07/25 11:53:50;;;;;;;10.88;9.85;;;29.80;99.90;;;;;;5028946;28;20076;-50
2022/07/25 11:56:21;;;;;;;10.63;9.52;;;29.80;99.90;;;;;;5030688;28;20104;-50
2022/07/25 11:58:58;;;;;;;13.57;12.30;;;29.80;99.90;;;;;;5030796;28;20096;-50
2022/07/25 12:01:24;;;;;;;20.13;17.70;;;29.80;99.90;;;;;;5030346;28;20103;-50
2022/07/25 12:03:51;;;;;;;13.38;12.15;;;29.80;99.90;;;;;;5031811;28;20446;-49
2022/07/25 12:06:18;;;;;;;11.60;10.50;;;29.70;99.90;;;;;;5033197;28;20025;-49
2022/07/25 12:08:43;;;;;;;15.05;13.45;;;29.60;99.90;;;;;;5033404;28;20519;-50
2022/07/25 12:11:21;;;;;;;12.57;11.38;;;29.60;99.90;;;;;;5031026;28;20033;-49
2022/07/25 12:13:47;;;;;;;;;;;29.50;99.90;;;;;;5013850;28;20105;-50
2022/07/25 12:16:13;;;;;;;9.80;8.90;;;29.40;99.90;;;;;;5016690;28;19924;-51
2022/07/25 12:18:39;;;;;;;13.85;11.73;;;29.40;99.90;;;;;;5016128;28;20060;-51
2022/07/25 12:21:05;;;;;;;12.45;10.63;;;29.30;99.90;;;;;;5019175;28;20531;-51
2022/07/25 12:23:31;;;;;;;22.95;20.45;;;29.30;99.90;;;;;;5015376;28;20500;-51
2022/07/25 12:25:57;;;;;;;12.68;10.20;;;29.30;99.90;;;;;;5013369;28;20025;-51
2022/07/25 12:28:23;;;;;;;14.68;12.00;;;29.40;99.90;;;;;;5011672;28;20489;-51
2022/07/25 12:30:49;;;;;;;7.30;6.57;;;29.50;99.90;;;;;;5011096;28;20382;-51
2022/07/25 12:33:16;;;;;;;12.73;11.40;;;29.50;99.90;;;;;;5027923;28;20029;-50
2022/07/25 12:35:43;;;;;;;14.43;9.07;;;29.50;99.90;;;;;;5032446;28;20025;-52